Latest Coastal Weather Observations for Moorabbin Airport

IDV60701

Issued at 11:02 pm EST Monday 27 June 2016 (issued every 10 minutes, with the page automatically refreshed every 10 minutes)

About coastal observations | Map of coastal stations | Coastal observations for VIC | Marine services | Other Formats
Station Details ID: 086077 Name: MOORABBIN AIRPORT Lat: -37.98 Lon: 145.10 Height: 12.1 m
Data from the previous 72 hours. | See also: Recent months at Moorabbin Airport
Date/Time
EST
Temp
°C
Wind Pressure Rain since
9am
mm
Weather Cloud Vis
km
Sea
Height
m
Swell
Dir  Spd
kts
Gust
kts
hPa Trend Height
m
Period
s
Dir
27/11:00pm 7.1 N 7 8 1021.2 - 0.2 - - 10 - - - -
27/10:30pm 7.6 N 9 10 1021.1 - 0.0 - - 10 - - - -
27/10:00pm 7.9 NNW 7 8 1020.9 - 0.0 - - 10 - - - -
27/09:30pm 7.6 N 7 9 1020.7 - 0.0 - - 10 - - - -
27/09:00pm 7.4 N 7 9 1020.5 - 0.0 - Mostly clear 10 - - - -
27/08:30pm 7.0 N 5 6 1020.4 - 0.0 - Partly cloudy 10 - - - -
27/08:00pm 6.8 N 6 7 1020.3 - 0.0 - - 10 - - - -
27/07:30pm 7.9 N 6 7 1020.0 - 0.0 - - 10 - - - -
27/07:00pm 8.2 N 6 8 1019.7 - 0.0 - - 10 - - - -
27/06:30pm 9.0 N 7 8 1019.3 - 0.0 - Partly cloudy 10 - - - -
27/06:00pm 9.5 N 6 7 1019.2 - 0.0 - Mostly cloudy 10 - - - -
27/05:30pm 9.5 N 6 8 1018.7 - 0.0 - Cloudy 10 - - - -
27/05:00pm 10.2 NNW 6 8 1018.4 - 0.0 - Cloudy 10 - - - -
27/04:30pm 10.5 N 7 9 1018.1 - 0.0 - Cloudy 10 - - - -
27/04:00pm 10.7 N 7 9 1018.0 - 0.0 - Partly cloudy 10 - - - -
27/03:30pm 10.9 NNW 7 9 1017.8 - 0.0 - Partly cloudy 10 - - - -
27/03:01pm 10.7 NNW 5 7 1017.7 - 0.0 - Cloudy 10 - - - -
27/03:00pm 10.6 NNW 5 7 1017.7 - 0.0 - Cloudy 10 - - - -
27/02:30pm 10.1 NNW 5 7 1017.5 - 0.0 - Cloudy 10 - - - -
27/02:13pm 9.7 NW 7 10 1017.4 - 0.0 - Cloudy 10 - - - -
27/02:00pm 10.0 NNW 6 9 1017.4 - 0.0 - Cloudy 10 - - - -
27/01:30pm 9.9 NNW 8 11 1017.4 - 0.0 - Cloudy 10 - - - -
27/01:00pm 9.9 N 8 11 1017.3 - 0.0 - Cloudy 10 - - - -
27/12:30pm 9.6 N 9 11 1017.4 - 0.0 - Cloudy 10 - - - -
27/12:00pm 9.4 N 10 14 1017.5 - 0.0 - Cloudy 10 - - - -
27/11:30am 9.1 N 10 12 1017.7 - 0.0 - Cloudy 10 - - - -
27/11:00am 9.1 N 9 14 1017.8 - 0.0 - Cloudy 10 - - - -
27/10:30am 8.5 N 9 13 1018.0 - 0.0 - Cloudy 10 - - - -
27/10:00am 8.1 N 11 16 1017.7 - 0.0 - Cloudy 10 - - - -
27/09:30am 8.0 N 10 13 1017.7 - 0.0 - Partly cloudy 10 - - - -
27/09:00am 7.8 N 10 14 1017.4 - 0.2 - Cloudy 10 - - - -
27/08:30am 7.2 N 12 16 1017.2 - 0.2 - Partly cloudy 10 - - - -
27/08:00am 7.4 N 11 14 1017.0 - 0.2 - Partly cloudy 10 - - - -
27/07:30am 7.2 N 11 15 1016.8 - 0.2 - Partly cloudy 10 - - - -
27/07:00am 7.3 N 11 15 1016.6 - 0.2 - Partly cloudy 10 - - - -
27/06:30am 7.4 N 10 15 1016.3 - 0.0 - Partly cloudy 10 - - - -
27/06:00am 7.5 N 12 15 1016.1 - 0.0 - Cloudy 10 - - - -
27/05:30am 7.4 N 13 15 1015.7 - 0.0 - Partly cloudy 10 - - - -
27/05:00am 7.3 N 10 15 1015.7 - 0.0 - Partly cloudy 10 - - - -
27/04:30am 7.2 N 11 14 1015.7 - 0.0 - Partly cloudy 10 - - - -
27/04:00am 7.1 N 12 16 1015.6 - 0.0 - Cloudy 10 - - - -
27/03:30am 6.7 N 11 14 1015.9 - 0.0 - Cloudy 10 - - - -
27/03:00am 6.3 N 11 12 1016.0 - 0.0 - Mostly cloudy 10 - - - -
27/02:30am 6.4 N 10 13 1016.1 - 0.0 - Partly cloudy 10 - - - -
27/02:00am 6.6 N 10 12 1016.2 - 0.0 - Cloudy 10 - - - -
27/01:30am 6.2 N 8 11 1016.2 - 0.0 - Partly cloudy 10 - - - -
27/01:00am 6.0 N 8 11 1016.1 - 0.0 - Partly cloudy 10 - - - -
27/12:30am 6.2 N 10 13 1016.2 - 0.0 - - 10 - - - -
27/12:00am 6.2 N 10 15 1016.2 - 0.0 - Mostly clear 10 - - - -
 
Date/Time
EST
Temp
°C
Wind Pressure Rain since
9am
mm
Weather Cloud Vis
km
Sea
Height
m
Swell
Dir  Spd
kts
Gust
kts
hPa Trend Height
m
Period
s
Dir
26/11:30pm 6.5 N 11 14 1016.2 - 0.0 - - 10 - - - -
26/11:00pm 6.6 N 12 16 1016.2 - 0.0 - - 10 - - - -
26/10:30pm 6.7 N 13 16 1016.3 - 0.0 - - 10 - - - -
26/10:00pm 6.9 N 12 16 1016.4 - 0.0 - - 10 - - - -
26/09:30pm 6.9 N 11 14 1016.6 - 0.0 - - 10 - - - -
26/09:00pm 7.1 N 11 15 1016.8 - 0.0 - Mostly cloudy 10 - - - -
26/08:30pm 7.2 N 11 14 1017.1 - 0.0 - - 10 - - - -
26/08:00pm 7.4 N 11 14 1017.1 - 0.0 - - 10 - - - -
26/07:30pm 7.3 N 11 14 1017.1 - 0.0 - - 10 - - - -
26/07:00pm 7.5 N 9 12 1017.2 - 0.0 - Partly cloudy 10 - - - -
26/06:30pm 7.5 N 9 10 1017.1 - 0.0 - Partly cloudy 10 - - - -
26/06:00pm 7.4 N 8 11 1017.0 - 0.0 - Cloudy 10 - - - -
26/05:30pm 8.4 N 8 9 1016.9 - 0.0 - Partly cloudy 10 - - - -
26/05:00pm 8.4 N 9 11 1016.9 - 0.0 - Partly cloudy 10 - - - -
26/04:30pm 9.5 N 10 14 1017.0 - 0.0 - Cloudy 10 - - - -
26/04:00pm 9.6 N 13 17 1017.0 - 0.0 - Cloudy 10 - - - -
26/03:30pm 9.6 N 15 20 1017.1 - 0.0 - Partly cloudy 10 - - - -
26/03:00pm 9.8 N 15 20 1017.1 - 0.0 - Cloudy 10 - - - -
26/02:30pm 9.9 NNW 13 19 1017.2 - 0.0 - Cloudy 10 - - - -
26/02:00pm 10.6 NNW 14 22 1017.4 - 0.0 - Partly cloudy 10 - - - -
26/01:30pm 10.3 NNW 16 23 1017.6 - 0.0 - Partly cloudy 10 - - - -
26/01:00pm 10.5 NNW 16 24 1017.9 - 0.0 - Partly cloudy 10 - - - -
26/12:30pm 10.8 N 15 21 1018.0 - 0.0 - Partly cloudy 10 - - - -
26/12:00pm 9.9 N 11 15 1018.4 - 0.0 - Mostly clear 10 - - - -
26/11:30am 9.6 N 11 14 1019.3 - 0.0 - - 10 - - - -
26/11:00am 8.6 N 10 13 1019.8 - 0.0 - Partly cloudy 10 - - - -
26/10:30am 8.2 N 11 15 1020.3 - 0.0 - - 10 - - - -
26/10:00am 7.4 N 12 16 1020.5 - 0.0 - - 10 - - - -
26/09:30am 6.4 N 11 13 1020.7 - 0.0 - - 10 - - - -
26/09:00am 5.6 N 9 12 1021.0 - 0.2 - - 10 - - - -
26/08:30am 4.5 N 8 11 1021.1 - 0.2 - - 10 - - - -
26/08:00am 3.9 N 7 8 1021.0 - 0.2 - - 10 - - - -
26/07:30am 3.7 N 5 6 1020.8 - 0.2 - - 10 - - - -
26/07:00am 3.6 N 5 5 1020.8 - 0.2 - - 10 - - - -
26/06:30am 3.6 N 6 7 1020.7 - 0.2 - - 10 - - - -
26/06:00am 4.2 N 6 7 1020.8 - 0.2 - - 10 - - - -
26/05:30am 4.1 N 6 8 1020.7 - 0.2 - - 10 - - - -
26/05:00am 3.9 N 4 5 1020.7 - 0.2 - - 10 - - - -
26/04:30am 4.1 N 4 5 1020.3 - 0.2 - - 10 - - - -
26/04:00am 4.2 N 5 7 1020.3 - 0.2 - - 10 - - - -
26/03:30am 4.6 N 5 6 1020.7 - 0.2 - - 10 - - - -
26/03:00am 5.1 N 5 6 1021.1 - 0.2 - - 10 - - - -
26/02:30am 5.0 N 8 9 1021.3 - 0.2 - - 10 - - - -
26/02:00am 4.7 N 6 8 1021.3 - 0.2 - - 10 - - - -
26/01:30am 5.3 N 6 7 1021.3 - 0.2 - - 10 - - - -
26/01:00am 5.2 N 8 9 1021.3 - 0.2 - - 10 - - - -
26/12:30am 5.3 N 6 8 1021.7 - 0.2 - - 10 - - - -
26/12:00am 5.7 N 5 6 1021.8 - 0.2 - - 10 - - - -
 
Date/Time
EST
Temp
°C
Wind Pressure Rain since
9am
mm
Weather Cloud Vis
km
Sea
Height
m
Swell
Dir  Spd
kts
Gust
kts
hPa Trend Height
m
Period
s
Dir
25/11:30pm 5.7 N 6 7 1021.9 - 0.2 - - 10 - - - -
25/11:00pm 5.9 N 5 7 1022.1 - 0.2 - - 10 - - - -
25/10:30pm 6.4 N 3 4 1022.2 - 0.2 - - 10 - - - -
25/10:00pm 7.0 NNW 3 4 1022.3 - 0.2 - Partly cloudy 10 - - - -
25/09:30pm 7.1 N 5 5 1022.3 - 0.2 - Cloudy 10 - - - -
25/09:00pm 7.5 N 4 5 1022.3 - 0.2 - Cloudy 10 - - - -
25/08:30pm 7.7 N 3 4 1022.4 - 0.2 - Partly cloudy 10 - - - -
25/08:00pm 7.9 N 5 6 1022.5 - 0.2 - Partly cloudy 10 - - - -
25/07:30pm 8.5 N 4 4 1022.6 - 0.2 - Partly cloudy 10 - - - -
25/07:00pm 8.5 N 5 6 1022.6 - 0.2 - Cloudy 10 - - - -
25/06:30pm 8.6 N 4 5 1022.6 - 0.2 - Partly cloudy 10 - - - -
25/06:00pm 8.9 CALM 0 0 1022.6 - 0.2 - Cloudy 10 - - - -
25/05:30pm 9.9 WNW 1 4 1022.5 - 0.2 - Partly cloudy 10 - - - -
25/05:00pm 10.6 WSW 5 8 1022.2 - 0.2 - Partly cloudy 10 - - - -
25/04:30pm 10.7 WSW 6 8 1022.3 - 0.2 - Cloudy 10 - - - -
25/04:00pm 11.3 W 7 9 1022.4 - 0.2 - Partly cloudy 10 - - - -
25/03:30pm 11.7 W 7 9 1022.3 - 0.2 - Partly cloudy 10 - - - -
25/03:00pm 11.7 W 6 9 1022.1 - 0.2 - Mostly clear 10 - - - -
25/02:30pm 11.1 W 7 11 1022.1 - 0.2 - - 10 - - - -
25/02:00pm 11.3 WNW 6 9 1022.2 - 0.2 - - 10 - - - -
25/01:30pm 10.8 WNW 7 9 1022.4 - 0.2 - Partly cloudy 10 - - - -
25/01:00pm 10.6 W 7 9 1022.6 - 0.2 - Partly cloudy 10 - - - -
25/12:30pm 10.3 NW 6 9 1022.9 - 0.2 - Partly cloudy 10 - - - -
25/12:00pm 9.5 WNW 7 10 1023.2 - 0.2 - Cloudy 10 - - - -
25/11:30am 8.5 NW 6 8 1023.4 - 0.2 - Partly cloudy 10 - - - -
25/11:00am 7.8 NW 6 9 1023.4 - 0.2 - Partly cloudy 10 - - - -
25/10:30am 7.2 NW 6 8 1023.3 - 0.2 - Partly cloudy 10 - - - -
25/10:00am 6.3 NNW 8 12 1023.0 - 0.2 - Partly cloudy 10 - - - -
25/09:30am 6.9 NW 7 11 1023.0 - 0.2 - Partly cloudy 10 - - - -
25/09:17am 6.6 NNW 8 11 1022.7 - 0.2 - Partly cloudy 10 - - - -
25/09:00am 6.5 NNW 7 9 1022.6 - 5.6 Rain Mostly cloudy 5 - - - -
25/08:54am 6.5 NNW 7 10 1022.5 - 5.4 - Partly cloudy 5 - - - -
25/08:30am 5.9 N 6 8 1022.1 - 5.4 - - 10 - - - -
25/08:00am 5.9 NW 6 7 1021.8 - 5.4 - Partly cloudy 10 - - - -
25/07:30am 6.0 NW 7 9 1021.7 - 5.4 - Partly cloudy 10 - - - -
25/07:00am 5.8 NNW 6 8 1021.4 - 5.2 - Partly cloudy 10 - - - -
25/06:30am 6.7 WNW 6 8 1021.2 - 5.2 - Partly cloudy 10 - - - -
25/06:00am 6.8 WNW 6 10 1020.8 - 5.2 Recent precip. Cloudy 10 - - - -
25/05:30am 6.6 WNW 7 11 1020.6 - 5.0 - Partly cloudy 10 - - - -
25/05:00am 6.7 W 6 8 1020.3 - 4.8 - Partly cloudy 9 - - - -
25/04:30am 6.4 WNW 5 9 1020.1 - 4.6 - Partly cloudy 10 - - - -
25/04:00am 6.7 W 6 8 1019.9 - 4.6 - Partly cloudy 9 - - - -
25/03:30am 6.1 WNW 7 10 1019.7 - 4.6 - Partly cloudy 10 - - - -
25/03:00am 6.2 WNW 7 11 1019.5 - 3.6 Recent precip. Cloudy 10 - - - -
25/02:30am 6.8 W 9 14 1019.4 - 3.2 - Partly cloudy 8 - - - -
25/02:00am 6.7 W 10 16 1018.8 - 2.6 - Partly cloudy 10 - - - -
25/01:30am 6.9 W 11 16 1018.3 - 2.6 - Partly cloudy 10 - - - -
25/01:00am 6.8 W 9 12 1018.0 - 2.6 - Partly cloudy 10 - - - -
25/12:30am 7.0 W 12 17 1017.7 - 2.6 - Partly cloudy 10 - - - -
25/12:00am 7.5 WSW 10 18 1017.6 - 2.6 - Cloudy 10 - - - -
 
Date/Time
EST
Temp
°C
Wind Pressure Rain since
9am
mm
Weather Cloud Vis
km
Sea
Height
m
Swell
Dir  Spd
kts
Gust
kts
hPa Trend Height
m
Period
s
Dir
24/11:30pm 6.7 W 9 14 1017.2 - 2.6 - - 10 - - - -

Other Formats:

Comma delimited format used in spreadsheet applications
http://www.bom.gov.au/fwo/IDV60701/IDV60701.94870.axf

JavaScript Object Notation format (JSON) in row-major order
http://www.bom.gov.au/fwo/IDV60701/IDV60701.94870.json